Time;durP1;ratioP1;P1;durP2;ratioP2;P2;SDS_P1;SDS_P2;PMS_P1;PMS_P2;Temp;Humidity;BMP_temperature;BMP_pressure;BME280_temperature;BME280_humidity;BME280_pressure;Samples;Min_cycle;Max_cycle;Signal;HPM_P1;HPM_P2
2021/12/06 00:02:21;;;;;;;54.42;20.05;;;;;;;;;;4979526;28;20030;-86
2021/12/06 00:04:47;;;;;;;60.60;20.38;;;;;;;;;;4982698;28;20046;-87
2021/12/06 00:07:16;;;;;;;53.10;20.73;;;;;;;;;;4964815;28;20034;-86
2021/12/06 00:09:42;;;;;;;50.30;19.60;;;;;;;;;;4974679;28;20038;-86
2021/12/06 00:12:09;;;;;;;52.42;20.27;;;;;;;;;;4976037;28;20031;-87
2021/12/06 00:14:37;;;;;;;60.33;20.95;;;;;;;;;;4964844;28;20400;-86
2021/12/06 00:17:08;;;;;;;60.40;22.33;;;;;;;;;;4955753;28;20601;-86
2021/12/06 00:19:34;;;;;;;61.67;23.50;;;;;;;;;;4957050;28;20035;-87
2021/12/06 00:22:01;;;;;;;48.42;17.38;;;;;;;;;;4949043;28;20045;-86
2021/12/06 00:24:28;;;;;;;57.17;22.08;;;;;;;;;;4959026;28;20096;-87
2021/12/06 00:26:54;;;;;;;61.63;20.73;;;;;;;;;;4962645;28;20038;-87
2021/12/06 00:29:20;;;;;;;49.22;18.08;;;;;;;;;;4942883;28;20491;-87
2021/12/06 00:31:47;;;;;;;57.47;21.00;;;;;;;;;;4960212;28;20026;-86
2021/12/06 00:34:16;;;;;;;63.30;22.75;;;;;;;;;;4944409;28;20577;-86
2021/12/06 00:36:51;;;;;;;56.45;20.50;;;;;;;;;;4963671;28;20022;-86
2021/12/06 00:39:18;;;;;;;51.97;22.23;;;;;;;;;;4961993;28;20033;-85
2021/12/06 00:41:44;;;;;;;52.78;20.77;;;;;;;;;;4945690;28;20039;-86
2021/12/06 00:44:10;;;;;;;58.85;22.10;;;;;;;;;;4945456;28;20429;-86
2021/12/06 00:46:40;;;;;;;61.60;23.27;;;;;;;;;;4943907;28;20035;-87
2021/12/06 00:49:06;;;;;;;57.85;21.17;;;;;;;;;;4960854;28;20027;-86
2021/12/06 00:51:32;;;;;;;57.35;21.35;;;;;;;;;;4966934;28;20486;-87
2021/12/06 00:53:58;;;;;;;53.08;20.52;;;;;;;;;;4944548;28;20061;-87
2021/12/06 00:56:25;;;;;;;58.03;20.65;;;;;;;;;;4964084;28;20023;-87
2021/12/06 00:58:50;;;;;;;50.97;19.42;;;;;;;;;;4963068;28;20077;-87
2021/12/06 01:01:17;;;;;;;53.47;21.40;;;;;;;;;;4949618;28;20498;-87
2021/12/06 01:03:43;;;;;;;57.00;22.33;;;;;;;;;;4948908;28;20118;-87
2021/12/06 01:06:10;;;;;;;54.20;20.38;;;;;;;;;;4951240;28;20479;-87
2021/12/06 01:08:37;;;;;;;57.15;22.30;;;;;;;;;;4950796;28;20027;-87
2021/12/06 01:11:04;;;;;;;56.55;21.30;;;;;;;;;;4950327;28;20517;-88
2021/12/06 01:13:30;;;;;;;55.50;20.50;;;;;;;;;;4947781;28;20041;-86
2021/12/06 01:15:56;;;;;;;59.92;22.15;;;;;;;;;;4950202;28;20058;-87
2021/12/06 01:18:22;;;;;;;60.13;21.02;;;;;;;;;;4968767;28;20466;-87
2021/12/06 01:20:56;;;;;;;58.10;22.48;;;;;;;;;;4973825;28;20025;-86
2021/12/06 01:23:27;;;;;;;58.83;22.33;;;;;;;;;;4963602;28;20030;-88
2021/12/06 01:29:01;;;;;;;52.33;22.90;;;;;;;;;;4986414;28;20038;-86
2021/12/06 01:31:50;;;;;;;61.42;23.17;;;;;;;;;;4981876;28;20113;-87
2021/12/06 01:39:37;;;;;;;56.15;20.50;;;;;;;;;;4980288;28;20429;-87
2021/12/06 01:42:04;;;;;;;56.00;20.15;;;;;;;;;;4967751;28;20031;-88
2021/12/06 01:44:33;;;;;;;62.42;22.05;;;;;;;;;;4980415;28;20110;-87
2021/12/06 01:47:04;;;;;;;60.10;22.85;;;;;;;;;;4982470;28;20042;-86
2021/12/06 01:49:34;;;;;;;58.88;20.55;;;;;;;;;;4966120;28;20041;-86
2021/12/06 01:52:01;;;;;;;57.50;20.52;;;;;;;;;;4968778;28;20034;-86
2021/12/06 01:54:28;;;;;;;57.40;20.73;;;;;;;;;;4979580;28;20045;-87
2021/12/06 01:56:54;;;;;;;55.38;21.67;;;;;;;;;;4965704;28;20022;-87
2021/12/06 01:59:21;;;;;;;64.57;23.95;;;;;;;;;;4967199;28;20029;-87
2021/12/06 02:01:48;;;;;;;60.30;21.42;;;;;;;;;;4949407;28;20085;-86
2021/12/06 02:04:14;;;;;;;55.05;18.95;;;;;;;;;;4962741;28;20045;-86
2021/12/06 02:06:40;;;;;;;56.97;21.27;;;;;;;;;;4966212;28;20552;-87
2021/12/06 02:09:08;;;;;;;61.45;21.38;;;;;;;;;;4978828;28;20300;-87
2021/12/06 02:11:37;;;;;;;66.30;21.95;;;;;;;;;;4984052;28;20060;-86
2021/12/06 02:17:13;;;;;;;50.85;18.45;;;;;;;;;;4960813;28;20061;-87
2021/12/06 02:19:42;;;;;;;61.70;21.80;;;;;;;;;;4977613;28;20034;-86
2021/12/06 02:22:10;;;;;;;59.25;21.23;;;;;;;;;;4967377;28;20030;-87
2021/12/06 02:24:38;;;;;;;63.30;22.20;;;;;;;;;;4965077;28;20042;-86
2021/12/06 02:27:04;;;;;;;69.25;23.33;;;;;;;;;;4965886;28;20038;-87
2021/12/06 02:29:31;;;;;;;54.97;21.27;;;;;;;;;;4967570;28;20058;-86
2021/12/06 02:31:57;;;;;;;58.60;21.10;;;;;;;;;;4976546;28;20026;-86
2021/12/06 02:34:23;;;;;;;73.45;25.67;;;;;;;;;;4980846;28;20026;-86
2021/12/06 02:36:49;;;;;;;76.07;22.80;;;;;;;;;;4967888;28;20113;-86
2021/12/06 02:39:21;;;;;;;78.65;25.30;;;;;;;;;;4958725;28;20038;-86
2021/12/06 02:41:49;;;;;;;68.75;22.48;;;;;;;;;;4967653;28;20065;-87
2021/12/06 02:44:18;;;;;;;68.45;23.80;;;;;;;;;;4968740;28;20474;-86
2021/12/06 02:46:44;;;;;;;76.38;25.25;;;;;;;;;;4961133;28;20064;-87
2021/12/06 02:49:11;;;;;;;71.72;22.08;;;;;;;;;;4968921;28;20703;-86
2021/12/06 02:51:37;;;;;;;80.90;24.10;;;;;;;;;;4977107;28;20030;-86
2021/12/06 02:54:03;;;;;;;69.78;22.85;;;;;;;;;;4967756;28;20060;-86
2021/12/06 02:56:33;;;;;;;65.50;23.58;;;;;;;;;;4980515;28;20506;-87
2021/12/06 02:59:02;;;;;;;71.30;23.58;;;;;;;;;;4963029;28;20030;-86
2021/12/06 03:01:49;;;;;;;64.82;21.58;;;;;;;;;;4979724;28;20478;-86
2021/12/06 03:04:15;;;;;;;73.05;23.92;;;;;;;;;;4976315;28;20049;-87
2021/12/06 03:06:41;;;;;;;73.47;23.23;;;;;;;;;;4965041;28;20501;-87
2021/12/06 03:09:11;;;;;;;82.15;24.30;;;;;;;;;;4965544;28;20534;-87
2021/12/06 03:11:43;;;;;;;65.15;23.45;;;;;;;;;;4964426;28;20061;-87
2021/12/06 03:14:20;;;;;;;74.47;22.30;;;;;;;;;;4981858;28;20039;-87
2021/12/06 03:16:47;;;;;;;64.60;18.67;;;;;;;;;;4983746;28;20042;-87
2021/12/06 03:19:13;;;;;;;58.42;19.75;;;;;;;;;;4966417;28;20561;-87
2021/12/06 03:21:39;;;;;;;72.13;22.75;;;;;;;;;;4977450;28;20088;-87
2021/12/06 03:24:06;;;;;;;77.60;22.73;;;;;;;;;;4977692;28;20057;-87
2021/12/06 03:26:33;;;;;;;66.07;22.33;;;;;;;;;;4978610;28;20687;-87
2021/12/06 03:29:00;;;;;;;80.97;24.75;;;;;;;;;;4965410;28;20532;-87
2021/12/06 03:31:26;;;;;;;66.25;20.88;;;;;;;;;;4978079;28;20664;-87
2021/12/06 03:33:53;;;;;;;57.85;19.48;;;;;;;;;;4967595;28;20030;-86
2021/12/06 03:36:21;;;;;;;83.57;27.13;;;;;;;;;;4976499;28;20513;-86
2021/12/06 03:38:48;;;;;;;83.20;23.90;;;;;;;;;;4976758;28;20580;-87
2021/12/06 03:41:16;;;;;;;77.15;24.67;;;;;;;;;;4980646;28;20038;-87
2021/12/06 03:43:42;;;;;;;91.38;24.92;;;;;;;;;;4959755;28;20621;-86
2021/12/06 03:46:12;;;;;;;81.43;23.42;;;;;;;;;;4982727;28;20132;-87
2021/12/06 03:48:45;;;;;;;68.07;23.77;;;;;;;;;;4962608;28;20023;-86
2021/12/06 03:51:11;;;;;;;85.50;24.80;;;;;;;;;;4978640;28;20402;-87
2021/12/06 03:53:37;;;;;;;69.20;24.88;;;;;;;;;;4964345;28;20042;-86
2021/12/06 03:56:04;;;;;;;73.63;25.75;;;;;;;;;;4961165;28;20034;-87
2021/12/06 03:58:30;;;;;;;86.75;26.52;;;;;;;;;;4977109;28;20117;-86
2021/12/06 04:00:56;;;;;;;76.55;23.10;;;;;;;;;;4977817;28;20033;-86
2021/12/06 04:03:24;;;;;;;84.05;24.05;;;;;;;;;;4982740;28;20577;-88
2021/12/06 04:05:51;;;;;;;89.53;25.45;;;;;;;;;;4967524;28;20037;-87
2021/12/06 04:08:17;;;;;;;84.30;24.60;;;;;;;;;;4969792;28;20545;-86
2021/12/06 04:10:43;;;;;;;82.20;25.10;;;;;;;;;;4975993;28;20676;-87
2021/12/06 04:13:10;;;;;;;86.35;25.77;;;;;;;;;;4979325;28;20030;-86
2021/12/06 04:15:38;;;;;;;72.68;23.85;;;;;;;;;;4978443;28;20022;-87
2021/12/06 04:18:11;;;;;;;79.65;24.38;;;;;;;;;;4967670;28;20054;-86
2021/12/06 04:20:37;;;;;;;72.35;23.70;;;;;;;;;;4974311;28;20026;-87
2021/12/06 04:23:06;;;;;;;77.72;22.75;;;;;;;;;;4982216;28;20058;-86
2021/12/06 04:25:32;;;;;;;82.55;23.77;;;;;;;;;;4984204;28;20475;-86
2021/12/06 04:28:04;;;;;;;75.50;24.85;;;;;;;;;;4987958;28;20030;-87
2021/12/06 04:30:30;;;;;;;81.97;25.88;;;;;;;;;;4981822;28;20037;-86
2021/12/06 04:32:56;;;;;;;84.78;25.05;;;;;;;;;;4987270;28;20034;-86
2021/12/06 04:35:23;;;;;;;92.07;25.25;;;;;;;;;;4972768;28;20030;-87
2021/12/06 04:37:49;;;;;;;83.32;26.23;;;;;;;;;;4963176;28;20030;-86
2021/12/06 04:40:15;;;;;;;81.53;25.90;;;;;;;;;;4969412;28;20034;-86
2021/12/06 04:42:42;;;;;;;79.28;25.55;;;;;;;;;;4971940;28;20030;-86
2021/12/06 04:45:09;;;;;;;90.53;27.08;;;;;;;;;;4964098;28;20042;-86
2021/12/06 04:47:35;;;;;;;77.25;24.83;;;;;;;;;;4969906;28;20477;-87
2021/12/06 04:50:01;;;;;;;77.05;25.52;;;;;;;;;;4969229;28;20030;-87
2021/12/06 04:52:27;;;;;;;74.72;24.05;;;;;;;;;;4968290;28;20034;-87
2021/12/06 04:54:57;;;;;;;81.20;24.88;;;;;;;;;;4980126;28;20022;-87
2021/12/06 04:57:25;;;;;;;90.50;26.30;;;;;;;;;;4979085;28;20486;-86
2021/12/06 04:59:56;;;;;;;88.97;25.20;;;;;;;;;;4977093;28;20170;-87
2021/12/06 05:02:24;;;;;;;82.20;25.50;;;;;;;;;;4975039;28;20034;-88
2021/12/06 05:04:51;;;;;;;56.53;17.65;;;;;;;;;;4963955;28;20040;-87
2021/12/06 05:07:20;;;;;;;69.93;22.30;;;;;;;;;;4968753;28;20118;-86
2021/12/06 05:09:46;;;;;;;71.93;23.13;;;;;;;;;;4966551;28;20164;-87
2021/12/06 05:12:14;;;;;;;76.18;24.85;;;;;;;;;;4967505;28;20037;-86
2021/12/06 05:14:40;;;;;;;78.43;26.17;;;;;;;;;;4969615;28;20456;-87
2021/12/06 05:17:06;;;;;;;97.70;26.17;;;;;;;;;;4965870;28;20146;-86
2021/12/06 05:19:32;;;;;;;91.07;26.05;;;;;;;;;;4946072;28;20126;-87
2021/12/06 05:21:58;;;;;;;83.13;24.83;;;;;;;;;;4949344;28;20031;-86
2021/12/06 05:24:24;;;;;;;73.10;24.77;;;;;;;;;;4964952;28;20034;-87
2021/12/06 05:26:51;;;;;;;96.97;26.75;;;;;;;;;;4947181;28;20386;-86
2021/12/06 05:29:20;;;;;;;85.55;26.23;;;;;;;;;;4950676;28;20035;-88
2021/12/06 05:31:54;;;;;;;78.28;23.73;;;;;;;;;;4950178;28;20763;-86
2021/12/06 05:34:28;;;;;;;87.72;24.42;;;;;;;;;;4946301;28;20644;-86
2021/12/06 05:36:54;;;;;;;85.88;27.00;;;;;;;;;;4945902;28;20031;-86
2021/12/06 05:39:20;;;;;;;83.05;24.73;;;;;;;;;;4948528;28;20034;-87
2021/12/06 05:41:46;;;;;;;68.88;19.85;;;;;;;;;;4946548;28;20030;-86
2021/12/06 05:44:12;;;;;;;94.50;25.80;;;;;;;;;;4950572;28;20031;-87
2021/12/06 05:46:38;;;;;;;85.07;25.27;;;;;;;;;;4947185;28;20038;-87
2021/12/06 05:49:04;;;;;;;77.60;24.50;;;;;;;;;;4960995;28;20030;-85
2021/12/06 05:51:30;;;;;;;84.65;26.33;;;;;;;;;;4947613;28;20034;-87
2021/12/06 05:53:56;;;;;;;76.28;21.63;;;;;;;;;;4946681;28;20431;-87
2021/12/06 05:56:22;;;;;;;80.40;23.40;;;;;;;;;;4963519;28;20030;-87
2021/12/06 05:58:48;;;;;;;82.60;23.15;;;;;;;;;;4945762;28;20483;-87
2021/12/06 06:01:15;;;;;;;79.70;23.63;;;;;;;;;;4961496;28;20121;-86
2021/12/06 06:03:40;;;;;;;94.13;24.60;;;;;;;;;;4961787;28;20026;-86
2021/12/06 06:06:07;;;;;;;79.95;24.90;;;;;;;;;;4965078;28;20037;-86
2021/12/06 06:08:33;;;;;;;89.38;27.58;;;;;;;;;;4962743;28;20038;-86
2021/12/06 06:10:59;;;;;;;64.28;20.98;;;;;;;;;;4966420;28;20036;-86
2021/12/06 06:13:25;;;;;;;90.53;28.20;;;;;;;;;;4963052;28;20023;-87
2021/12/06 06:15:51;;;;;;;79.18;22.15;;;;;;;;;;4945758;28;20089;-87
2021/12/06 06:18:18;;;;;;;69.35;20.80;;;;;;;;;;4942174;28;20462;-88
2021/12/06 06:20:52;;;;;;;76.63;23.30;;;;;;;;;;4946337;28;20032;-88
2021/12/06 06:23:18;;;;;;;72.28;23.23;;;;;;;;;;4958915;28;20477;-87
2021/12/06 06:25:44;;;;;;;86.80;24.77;;;;;;;;;;4948748;28;20031;-87
2021/12/06 06:28:11;;;;;;;69.95;22.27;;;;;;;;;;4947030;28;20122;-87
2021/12/06 06:30:37;;;;;;;71.75;22.60;;;;;;;;;;4947656;28;20494;-87
2021/12/06 06:33:03;;;;;;;89.60;22.92;;;;;;;;;;4961245;28;20031;-87
2021/12/06 06:35:30;;;;;;;76.65;23.42;;;;;;;;;;4949693;28;20037;-87
2021/12/06 06:37:56;;;;;;;74.40;23.98;;;;;;;;;;4947234;28;20573;-86
2021/12/06 06:40:22;;;;;;;78.97;20.33;;;;;;;;;;4959769;28;20058;-88
2021/12/06 06:42:49;;;;;;;79.45;22.80;;;;;;;;;;4959469;28;20395;-87
2021/12/06 06:45:16;;;;;;;59.80;18.50;;;;;;;;;;4948041;28;20039;-86
2021/12/06 06:47:42;;;;;;;73.25;22.15;;;;;;;;;;4947010;28;20428;-88
2021/12/06 06:50:09;;;;;;;86.10;24.45;;;;;;;;;;4944435;28;20038;-87
2021/12/06 06:52:35;;;;;;;60.40;18.23;;;;;;;;;;4951229;28;20037;-87
2021/12/06 06:55:03;;;;;;;72.20;21.83;;;;;;;;;;4948290;28;20019;-86
2021/12/06 06:57:29;;;;;;;62.17;18.45;;;;;;;;;;4946276;28;20038;-87
2021/12/06 06:59:55;;;;;;;52.40;17.30;;;;;;;;;;4957947;28;20034;-87
2021/12/06 07:02:22;;;;;;;72.55;20.58;;;;;;;;;;4962677;28;20501;-87
2021/12/06 07:04:48;;;;;;;49.17;16.95;;;;;;;;;;4958683;28;20123;-87
2021/12/06 07:07:14;;;;;;;48.72;16.70;;;;;;;;;;4964955;28;20041;-87
2021/12/06 07:09:42;;;;;;;51.47;17.42;;;;;;;;;;4960791;28;20503;-87
2021/12/06 07:12:14;;;;;;;73.28;22.58;;;;;;;;;;4946357;28;20031;-87
2021/12/06 07:14:40;;;;;;;65.80;19.63;;;;;;;;;;4944327;28;20042;-88
2021/12/06 07:17:06;;;;;;;68.95;21.48;;;;;;;;;;4951242;28;20219;-88
2021/12/06 07:19:39;;;;;;;61.28;16.88;;;;;;;;;;4965620;28;20049;-87
2021/12/06 07:22:05;;;;;;;57.83;19.33;;;;;;;;;;4965946;28;20044;-87
2021/12/06 07:24:31;;;;;;;74.97;21.85;;;;;;;;;;4973945;28;20732;-87
2021/12/06 07:26:58;;;;;;;65.18;20.23;;;;;;;;;;4967537;28;20487;-87
2021/12/06 07:29:26;;;;;;;69.97;20.45;;;;;;;;;;4981309;28;20402;-87
2021/12/06 07:31:52;;;;;;;75.68;21.92;;;;;;;;;;4961819;28;20045;-87
2021/12/06 07:34:19;;;;;;;77.63;23.98;;;;;;;;;;4962352;28;22320;-87
2021/12/06 07:36:45;;;;;;;79.53;23.42;;;;;;;;;;4976120;28;20027;-87
2021/12/06 07:39:11;;;;;;;77.78;23.70;;;;;;;;;;4978366;28;20100;-88
2021/12/06 07:41:37;;;;;;;93.78;25.58;;;;;;;;;;4964928;28;20045;-88
2021/12/06 07:44:04;;;;;;;82.32;23.38;;;;;;;;;;4978916;28;20037;-88
2021/12/06 07:46:31;;;;;;;86.20;22.80;;;;;;;;;;4977085;28;20085;-87
2021/12/06 07:48:57;;;;;;;94.20;26.27;;;;;;;;;;4959475;28;20026;-88
2021/12/06 07:51:24;;;;;;;89.03;24.90;;;;;;;;;;4980809;28;20034;-88
2021/12/06 07:54:03;;;;;;;81.00;23.15;;;;;;;;;;4980044;28;20042;-87
2021/12/06 07:56:29;;;;;;;75.18;23.35;;;;;;;;;;4966762;28;20509;-87
2021/12/06 07:58:55;;;;;;;90.72;24.67;;;;;;;;;;4965475;28;20034;-88
2021/12/06 08:01:22;;;;;;;86.18;22.83;;;;;;;;;;4977866;28;20683;-88
2021/12/06 08:03:48;;;;;;;94.15;27.50;;;;;;;;;;4966440;28;20044;-88
2021/12/06 08:06:14;;;;;;;89.00;25.50;;;;;;;;;;4980280;28;20522;-89
2021/12/06 08:08:43;;;;;;;77.80;23.52;;;;;;;;;;4984112;28;20038;-87
2021/12/06 08:11:11;;;;;;;82.43;20.10;;;;;;;;;;4974290;28;20058;-87
2021/12/06 08:13:38;;;;;;;109.57;28.80;;;;;;;;;;4982949;28;20486;-88
2021/12/06 08:16:07;;;;;;;86.90;24.85;;;;;;;;;;4965946;28;20030;-88
2021/12/06 08:18:33;;;;;;;101.38;26.90;;;;;;;;;;4973449;28;20050;-88
2021/12/06 08:21:00;;;;;;;85.03;26.55;;;;;;;;;;4945776;28;20713;-91
2021/12/06 08:23:27;;;;;;;89.18;25.50;;;;;;;;;;4948457;28;20043;-90
2021/12/06 08:25:53;;;;;;;84.30;25.27;;;;;;;;;;4949609;28;20525;-89
2021/12/06 08:28:20;;;;;;;96.63;26.13;;;;;;;;;;4948681;28;20062;-89
2021/12/06 08:30:47;;;;;;;89.90;22.42;;;;;;;;;;4949984;28;20031;-86
2021/12/06 08:33:13;;;;;;;99.40;26.67;;;;;;;;;;4961254;28;20381;-88
2021/12/06 08:35:41;;;;;;;93.25;26.15;;;;;;;;;;4946135;28;20027;-88
2021/12/06 08:38:08;;;;;;;110.35;26.35;;;;;;;;;;4955629;28;20043;-89
2021/12/06 08:40:35;;;;;;;97.75;24.85;;;;;;;;;;4960078;28;20129;-88
2021/12/06 08:43:01;;;;;;;93.13;26.63;;;;;;;;;;4958060;28;20023;-88
2021/12/06 08:45:27;;;;;;;81.97;24.05;;;;;;;;;;4960141;28;20042;-87
2021/12/06 08:47:54;;;;;;;78.88;20.25;;;;;;;;;;4946004;28;20081;-87
2021/12/06 08:50:22;;;;;;;93.63;23.65;;;;;;;;;;4942480;28;20479;-88
2021/12/06 08:52:49;;;;;;;90.20;25.88;;;;;;;;;;4953794;28;20054;-88
2021/12/06 08:55:15;;;;;;;94.80;25.95;;;;;;;;;;4942255;28;20284;-88
2021/12/06 08:57:41;;;;;;;77.07;22.65;;;;;;;;;;4944517;28;20102;-89
2021/12/06 09:00:10;;;;;;;107.03;27.67;;;;;;;;;;4948302;28;20562;-90
2021/12/06 09:02:38;;;;;;;94.88;25.65;;;;;;;;;;4945553;28;20431;-90
2021/12/06 09:05:04;;;;;;;97.53;28.15;;;;;;;;;;4946726;28;20047;-89
2021/12/06 09:07:30;;;;;;;105.07;29.55;;;;;;;;;;4943556;28;20244;-91
2021/12/06 09:09:56;;;;;;;88.70;25.42;;;;;;;;;;4946399;28;20026;-89
2021/12/06 09:12:24;;;;;;;92.90;25.08;;;;;;;;;;4948415;28;20043;-90
2021/12/06 09:14:51;;;;;;;90.70;24.88;;;;;;;;;;4955320;28;20112;-87
2021/12/06 09:17:17;;;;;;;82.70;21.23;;;;;;;;;;4951868;28;20046;-90
2021/12/06 09:19:43;;;;;;;84.88;24.65;;;;;;;;;;4966343;28;20077;-89
2021/12/06 09:22:09;;;;;;;82.38;25.05;;;;;;;;;;4967135;28;20073;-88
2021/12/06 09:24:35;;;;;;;77.10;24.27;;;;;;;;;;4967129;28;20031;-89
2021/12/06 09:27:02;;;;;;;79.13;22.63;;;;;;;;;;4981245;28;20022;-89
2021/12/06 09:29:29;;;;;;;74.03;21.98;;;;;;;;;;4980200;28;20134;-88
2021/12/06 09:31:59;;;;;;;72.55;21.98;;;;;;;;;;4982992;28;20018;-89
2021/12/06 09:34:26;;;;;;;82.53;23.65;;;;;;;;;;4982042;28;20356;-88
2021/12/06 09:36:52;;;;;;;49.47;17.23;;;;;;;;;;4980383;28;20065;-88
2021/12/06 09:39:18;;;;;;;74.68;21.98;;;;;;;;;;4977253;28;20045;-88
2021/12/06 09:41:44;;;;;;;58.35;19.70;;;;;;;;;;4966989;28;20438;-87
2021/12/06 09:44:10;;;;;;;64.30;20.27;;;;;;;;;;4967370;28;20509;-86
2021/12/06 09:46:38;;;;;;;67.50;19.60;;;;;;;;;;4979199;28;20038;-87
2021/12/06 09:49:07;;;;;;;59.78;20.13;;;;;;;;;;4981927;28;20084;-86
2021/12/06 09:51:33;;;;;;;62.17;20.55;;;;;;;;;;4981711;28;20598;-87
2021/12/06 09:54:06;;;;;;;58.08;20.13;;;;;;;;;;4967871;28;20605;-91
2021/12/06 09:56:34;;;;;;;66.53;20.98;;;;;;;;;;4953138;28;20041;-88
2021/12/06 09:59:01;;;;;;;57.38;19.77;;;;;;;;;;4966940;28;20117;-88
2021/12/06 10:01:30;;;;;;;54.83;19.60;;;;;;;;;;4986386;28;20041;-88
2021/12/06 10:03:58;;;;;;;53.10;19.08;;;;;;;;;;4966361;28;20561;-92
2021/12/06 10:06:26;;;;;;;28.73;8.88;;;;;;;;;;4979519;28;20034;-90
2021/12/06 10:08:54;;;;;;;59.20;18.75;;;;;;;;;;4967280;28;20038;-88
2021/12/06 10:11:21;;;;;;;51.85;16.83;;;;;;;;;;4963237;28;20046;-88
2021/12/06 10:13:48;;;;;;;54.70;17.95;;;;;;;;;;4974924;28;20503;-89
2021/12/06 10:16:14;;;;;;;43.63;15.60;;;;;;;;;;4968965;28;20029;-87
2021/12/06 10:18:40;;;;;;;50.95;18.17;;;;;;;;;;4966235;28;20058;-88
2021/12/06 10:21:07;;;;;;;57.95;18.83;;;;;;;;;;4976319;28;20518;-88
2021/12/06 10:23:37;;;;;;;55.97;18.80;;;;;;;;;;4980788;28;20097;-88
2021/12/06 10:26:04;;;;;;;53.15;19.63;;;;;;;;;;4960220;28;20034;-88
2021/12/06 10:28:31;;;;;;;54.38;16.73;;;;;;;;;;4981104;28;20026;-87
2021/12/06 10:30:58;;;;;;;47.15;16.92;;;;;;;;;;4965387;28;20030;-88
2021/12/06 10:33:26;;;;;;;53.55;16.42;;;;;;;;;;4966215;28;20415;-88
2021/12/06 10:35:54;;;;;;;60.80;19.50;;;;;;;;;;4966199;28;20038;-87
2021/12/06 10:38:29;;;;;;;48.28;17.40;;;;;;;;;;4981444;28;20038;-91
2021/12/06 10:40:59;;;;;;;46.72;16.58;;;;;;;;;;4965126;28;20031;-87
2021/12/06 10:43:26;;;;;;;52.33;17.88;;;;;;;;;;4983026;28;20474;-87
2021/12/06 10:45:54;;;;;;;45.15;14.70;;;;;;;;;;4958690;28;20034;-88
2021/12/06 10:48:22;;;;;;;46.80;17.23;;;;;;;;;;4964335;28;20086;-90
2021/12/06 10:50:51;;;;;;;50.55;17.00;;;;;;;;;;4975358;28;20045;-93
2021/12/06 10:53:22;;;;;;;47.92;16.52;;;;;;;;;;4964074;28;20414;-90
2021/12/06 10:55:51;;;;;;;46.45;16.88;;;;;;;;;;4981861;28;20030;-88
2021/12/06 10:58:19;;;;;;;40.88;15.45;;;;;;;;;;4967019;28;20530;-86
2021/12/06 11:00:48;;;;;;;50.35;16.52;;;;;;;;;;4962547;28;20050;-87
2021/12/06 11:03:40;;;;;;;46.05;16.52;;;;;;;;;;4975209;28;20037;-87
2021/12/06 11:06:17;;;;;;;43.83;15.05;;;;;;;;;;4957742;28;20035;-87
2021/12/06 11:08:45;;;;;;;41.70;15.35;;;;;;;;;;4975898;28;20088;-87
2021/12/06 11:11:13;;;;;;;41.83;16.15;;;;;;;;;;4966144;28;20137;-87
2021/12/06 11:13:40;;;;;;;34.92;14.88;;;;;;;;;;4963405;28;20702;-87
2021/12/06 11:16:11;;;;;;;42.00;16.20;;;;;;;;;;4964485;28;20486;-87
2021/12/06 11:18:54;;;;;;;25.60;7.45;;;;;;;;;;4977336;28;20673;-85
2021/12/06 11:21:26;;;;;;;32.95;8.77;;;;;;;;;;4977434;28;20026;-87
2021/12/06 11:24:15;;;;;;;45.75;16.70;;;;;;;;;;4977634;28;20136;-87
2021/12/06 11:26:46;;;;;;;59.20;16.20;;;;;;;;;;4959436;28;20526;-87
2021/12/06 11:29:14;;;;;;;48.58;17.08;;;;;;;;;;4981362;28;20050;-88
2021/12/06 11:31:42;;;;;;;37.58;10.27;;;;;;;;;;4978715;28;20041;-87
2021/12/06 11:34:08;;;;;;;63.22;19.88;;;;;;;;;;4978980;28;20047;-87
2021/12/06 11:36:35;;;;;;;38.20;12.43;;;;;;;;;;4967180;28;20031;-87
2021/12/06 11:39:05;;;;;;;67.53;19.45;;;;;;;;;;4964829;28;20495;-85
2021/12/06 11:41:31;;;;;;;36.72;14.27;;;;;;;;;;4963478;28;20125;-87
2021/12/06 11:43:58;;;;;;;48.58;15.05;;;;;;;;;;4978233;28;20504;-87
2021/12/06 11:46:29;;;;;;;61.60;19.83;;;;;;;;;;4963179;28;20039;-87
2021/12/06 11:48:55;;;;;;;50.00;16.30;;;;;;;;;;4978329;28;20070;-87
2021/12/06 11:51:25;;;;;;;57.05;19.83;;;;;;;;;;4965917;28;20038;-87
2021/12/06 11:53:56;;;;;;;56.28;16.17;;;;;;;;;;4980366;28;20026;-87
2021/12/06 11:56:25;;;;;;;51.92;17.45;;;;;;;;;;4978543;28;20349;-87
2021/12/06 11:58:53;;;;;;;22.00;8.63;;;;;;;;;;4980297;28;20166;-87
2021/12/06 12:01:19;;;;;;;42.25;14.85;;;;;;;;;;4973161;28;20030;-85
2021/12/06 12:03:47;;;;;;;39.75;12.55;;;;;;;;;;4983358;28;20025;-87
2021/12/06 12:06:25;;;;;;;43.50;15.85;;;;;;;;;;4978178;28;20038;-86
2021/12/06 12:09:03;;;;;;;43.05;15.75;;;;;;;;;;4961981;28;20054;-86
2021/12/06 12:11:29;;;;;;;44.53;14.43;;;;;;;;;;4978049;28;20123;-87
2021/12/06 12:13:56;;;;;;;50.15;16.15;;;;;;;;;;4958388;28;20042;-87
2021/12/06 12:16:23;;;;;;;41.55;16.08;;;;;;;;;;4966340;28;20043;-86
2021/12/06 12:18:49;;;;;;;46.40;14.85;;;;;;;;;;4983148;28;20567;-87
2021/12/06 12:21:15;;;;;;;33.85;11.77;;;;;;;;;;4970037;28;20034;-87
2021/12/06 12:23:42;;;;;;;49.58;15.55;;;;;;;;;;4957407;28;20054;-86
2021/12/06 12:26:13;;;;;;;39.25;14.52;;;;;;;;;;4980449;28;20022;-87
2021/12/06 12:29:01;;;;;;;16.85;6.30;;;;;;;;;;4973996;28;20506;-86
2021/12/06 12:31:28;;;;;;;34.65;13.88;;;;;;;;;;4974416;28;20256;-86
2021/12/06 12:33:57;;;;;;;38.55;12.60;;;;;;;;;;4962537;28;20026;-86
2021/12/06 12:36:24;;;;;;;33.67;13.18;;;;;;;;;;4965745;28;20482;-84
2021/12/06 12:38:54;;;;;;;33.67;11.07;;;;;;;;;;4964886;28;20023;-85
2021/12/06 12:41:21;;;;;;;33.42;14.57;;;;;;;;;;4966239;28;20061;-86
2021/12/06 12:43:51;;;;;;;35.92;12.38;;;;;;;;;;4976280;28;20112;-85
2021/12/06 12:46:20;;;;;;;36.17;14.90;;;;;;;;;;4971338;28;20045;-86
2021/12/06 12:48:55;;;;;;;26.80;8.70;;;;;;;;;;4968757;28;20022;-86
2021/12/06 12:51:35;;;;;;;31.80;13.90;;;;;;;;;;4966641;28;20173;-89
2021/12/06 12:54:02;;;;;;;33.83;12.88;;;;;;;;;;4978485;28;20392;-89
2021/12/06 12:56:38;;;;;;;31.95;12.57;;;;;;;;;;4968854;28;21023;-86
2021/12/06 12:59:19;;;;;;;40.80;14.68;;;;;;;;;;4980245;28;20030;-85
2021/12/06 13:02:05;;;;;;;39.88;14.27;;;;;;;;;;4966194;28;20027;-87
2021/12/06 13:04:51;;;;;;;30.45;11.88;;;;;;;;;;4981632;28;20030;-85
2021/12/06 13:07:17;;;;;;;44.97;15.10;;;;;;;;;;4969039;28;20033;-86
2021/12/06 13:09:43;;;;;;;29.48;11.82;;;;;;;;;;4968371;28;20026;-88
2021/12/06 13:12:11;;;;;;;28.58;9.07;;;;;;;;;;4967154;28;20072;-89
2021/12/06 13:14:46;;;;;;;23.38;9.55;;;;;;;;;;4985077;28;20402;-87
2021/12/06 13:17:23;;;;;;;48.30;16.88;;;;;;;;;;4980430;28;20386;-87
2021/12/06 13:20:05;;;;;;;48.30;15.90;;;;;;;;;;4982958;28;20046;-88
2021/12/06 13:22:32;;;;;;;41.88;14.50;;;;;;;;;;4982413;28;20022;-87
2021/12/06 13:25:00;;;;;;;48.70;14.25;;;;;;;;;;4968949;28;20443;-87
2021/12/06 13:27:26;;;;;;;41.47;16.75;;;;;;;;;;4981876;28;20371;-87
2021/12/06 13:29:57;;;;;;;22.38;8.77;;;;;;;;;;4967010;28;20030;-87
2021/12/06 13:32:28;;;;;;;41.60;17.17;;;;;;;;;;4984079;28;20505;-86
2021/12/06 13:34:55;;;;;;;29.70;9.82;;;;;;;;;;4980103;28;20112;-86
2021/12/06 13:37:25;;;;;;;45.33;18.08;;;;;;;;;;4983862;28;20077;-86
2021/12/06 13:39:51;;;;;;;45.67;17.80;;;;;;;;;;4966581;28;20057;-86
2021/12/06 13:42:38;;;;;;;49.72;17.67;;;;;;;;;;4971090;28;20411;-86
2021/12/06 13:45:06;;;;;;;48.40;17.35;;;;;;;;;;4964940;28;20030;-87
2021/12/06 13:47:32;;;;;;;47.53;17.30;;;;;;;;;;4967917;28;20023;-87
2021/12/06 13:50:01;;;;;;;52.83;16.35;;;;;;;;;;4967573;28;20498;-87
2021/12/06 13:52:41;;;;;;;57.40;21.15;;;;;;;;;;4971330;28;20041;-87
2021/12/06 13:55:39;;;;;;;64.35;21.10;;;;;;;;;;4980056;28;20624;-87
2021/12/06 13:58:06;;;;;;;59.83;21.15;;;;;;;;;;4960039;28;20046;-91
2021/12/06 14:00:42;;;;;;;54.88;18.65;;;;;;;;;;4980572;28;20022;-87
2021/12/06 14:03:12;;;;;;;60.70;21.20;;;;;;;;;;4966051;28;20327;-87
2021/12/06 14:05:40;;;;;;;48.88;17.30;;;;;;;;;;4970538;28;20038;-86
2021/12/06 14:08:06;;;;;;;68.55;21.08;;;;;;;;;;4983689;28;20027;-87
2021/12/06 14:10:33;;;;;;;59.65;21.92;;;;;;;;;;4968550;28;20041;-86
2021/12/06 14:12:59;;;;;;;45.50;14.75;;;;;;;;;;4963717;28;20047;-86
2021/12/06 14:15:36;;;;;;;67.57;22.98;;;;;;;;;;4966951;28;20015;-85
2021/12/06 14:18:04;;;;;;;64.75;22.20;;;;;;;;;;4962530;28;20034;-88
2021/12/06 14:20:30;;;;;;;55.40;18.55;;;;;;;;;;4981619;28;20477;-85
2021/12/06 14:22:56;;;;;;;71.30;23.88;;;;;;;;;;4966236;28;20442;-85
2021/12/06 14:25:22;;;;;;;63.25;21.80;;;;;;;;;;4963098;28;20573;-86
2021/12/06 14:27:48;;;;;;;71.28;24.45;;;;;;;;;;4966577;28;20066;-86
2021/12/06 14:30:20;;;;;;;67.47;22.70;;;;;;;;;;4981369;28;20041;-85
2021/12/06 14:32:51;;;;;;;46.10;15.05;;;;;;;;;;4967214;28;20085;-86
2021/12/06 14:35:19;;;;;;;72.25;23.10;;;;;;;;;;4966009;28;20635;-86